Time,TemperatureF,DewpointF,PressureIn,WindDirection,WindDirectionDegrees,WindSpeedMPH,WindSpeedGustMPH,Humidity,HourlyPrecipIn,Conditions,Clouds,dailyrainin,SolarRadiationWatts/m^2,SoftwareType,DateUTC
2013-02-09 00:13:00,70.4,67.0,30.04,WNW,291,6.0,-999.0,89,-99.99,,,0.00,0,weatherlink.com 1.10,2013-02-09 05:13:00,
2013-02-09 00:28:00,70.3,67.0,30.03,WNW,288,5.0,-999.0,89,-99.99,,,0.00,0,weatherlink.com 1.10,2013-02-09 05:28:00,
2013-02-09 00:43:00,70.3,67.0,30.04,WNW,295,6.0,-999.0,89,-99.99,,,0.00,0,weatherlink.com 1.10,2013-02-09 05:43:00,
2013-02-09 00:58:00,70.3,67.0,30.04,NW,308,5.0,-999.0,89,-99.99,,,0.00,0,weatherlink.com 1.10,2013-02-09 05:58:00,
2013-02-09 01:13:00,70.3,67.0,30.03,NW,322,6.0,-999.0,89,-99.99,,,0.00,0,weatherlink.com 1.10,2013-02-09 06:13:00,
2013-02-09 01:28:00,70.4,67.0,30.03,NNW,334,5.0,-999.0,89,-99.99,,,0.00,0,weatherlink.com 1.10,2013-02-09 06:28:00,
2013-02-09 01:43:00,70.4,67.0,30.03,NNW,334,6.0,-999.0,90,-99.99,,,0.00,0,weatherlink.com 1.10,2013-02-09 06:43:00,
2013-02-09 01:58:00,70.6,68.0,30.03,NNE,25,6.0,-999.0,90,-99.99,,,0.00,0,weatherlink.com 1.10,2013-02-09 06:58:00,
2013-02-09 02:13:00,71.8,69.0,30.02,ENE,61,10.0,-999.0,91,-99.99,,,0.00,0,weatherlink.com 1.10,2013-02-09 07:13:00,
2013-02-09 02:28:00,72.2,69.0,30.02,ENE,59,6.0,-999.0,90,-99.99,,,0.00,0,weatherlink.com 1.10,2013-02-09 07:28:00,
2013-02-09 02:43:00,72.5,69.0,30.03,ENE,69,9.0,-999.0,89,-99.99,,,0.00,0,weatherlink.com 1.10,2013-02-09 07:43:00,
2013-02-09 02:58:00,72.7,69.0,30.03,NE,51,9.0,-999.0,89,-99.99,,,0.00,0,weatherlink.com 1.10,2013-02-09 07:58:00,
2013-02-09 03:13:00,72.9,69.0,30.03,NE,53,9.0,-999.0,88,-99.99,,,0.00,0,weatherlink.com 1.10,2013-02-09 08:13:00,
2013-02-09 03:28:00,72.7,69.0,30.03,NE,51,9.0,-999.0,87,-99.99,,,0.00,0,weatherlink.com 1.10,2013-02-09 08:28:00,
2013-02-09 03:43:00,73.1,69.0,30.03,East,82,12.0,-999.0,88,-99.99,,,0.00,0,weatherlink.com 1.10,2013-02-09 08:43:00,
2013-02-09 03:58:00,73.1,69.0,30.03,ENE,65,9.0,-999.0,87,-99.99,,,0.00,0,weatherlink.com 1.10,2013-02-09 08:58:00,
2013-02-09 04:13:00,72.9,69.0,30.03,ENE,57,7.0,-999.0,87,-99.99,,,0.00,0,weatherlink.com 1.10,2013-02-09 09:13:00,
2013-02-09 04:28:00,72.8,68.0,30.03,NE,49,11.0,-999.0,86,-99.99,,,0.00,0,weatherlink.com 1.10,2013-02-09 09:28:00,
2013-02-09 04:43:00,72.8,68.0,30.04,NE,53,9.0,-999.0,85,-99.99,,,0.00,0,weatherlink.com 1.10,2013-02-09 09:43:00,
2013-02-09 04:58:00,72.9,68.0,30.04,NE,47,10.0,-999.0,84,-99.99,,,0.00,0,weatherlink.com 1.10,2013-02-09 09:58:00,
2013-02-09 05:13:00,72.6,67.0,30.04,NE,49,11.0,-999.0,83,-99.99,,,0.00,0,weatherlink.com 1.10,2013-02-09 10:13:00,
2013-02-09 05:28:00,72.6,67.0,30.05,North,355,7.0,-999.0,82,-99.99,,,0.00,0,weatherlink.com 1.10,2013-02-09 10:28:00,
2013-02-09 05:43:00,72.4,67.0,30.06,WNW,298,3.0,-999.0,83,-99.99,,,0.00,0,weatherlink.com 1.10,2013-02-09 10:43:00,
2013-02-09 05:58:00,71.4,66.0,30.06,WNW,302,4.0,-999.0,84,-99.99,,,0.00,0,weatherlink.com 1.10,2013-02-09 10:58:00,
2013-02-09 06:13:00,70.3,66.0,30.07,WNW,294,4.0,-999.0,85,-99.99,,,0.00,0,weatherlink.com 1.10,2013-02-09 11:13:00,
2013-02-09 06:28:00,69.3,65.0,30.07,WNW,284,5.0,-999.0,86,-99.99,,,0.00,0,weatherlink.com 1.10,2013-02-09 11:28:00,
2013-02-09 06:43:00,68.5,65.0,30.08,West,279,3.0,-999.0,88,-99.99,,,0.00,0,weatherlink.com 1.10,2013-02-09 11:43:00,
2013-02-09 06:58:00,68.0,64.0,30.08,WNW,293,4.0,-999.0,88,-99.99,,,0.00,0,weatherlink.com 1.10,2013-02-09 11:58:00,
2013-02-09 07:13:00,67.7,64.0,30.09,WNW,298,6.0,-999.0,89,-99.99,,,0.00,12,weatherlink.com 1.10,2013-02-09 12:13:00,
2013-02-09 07:28:00,67.5,65.0,30.09,NW,309,5.0,-999.0,90,-99.99,,,0.00,23,weatherlink.com 1.10,2013-02-09 12:28:00,
2013-02-09 07:43:00,67.4,65.0,30.10,NW,323,7.0,-999.0,90,-99.99,,,0.00,28,weatherlink.com 1.10,2013-02-09 12:43:00,
2013-02-09 07:58:00,67.7,65.0,30.10,NW,317,6.0,-999.0,91,-99.99,,,0.00,37,weatherlink.com 1.10,2013-02-09 12:58:00,
2013-02-09 08:14:00,68.2,66.0,30.11,NNW,330,5.0,-999.0,91,-99.99,,,0.00,56,weatherlink.com 1.10,2013-02-09 13:14:00,
2013-02-09 08:28:00,68.8,66.0,30.11,NW,314,5.0,-999.0,91,-99.99,,,0.00,302,weatherlink.com 1.10,2013-02-09 13:28:00,
2013-02-09 08:43:00,70.0,67.0,30.11,NNW,345,7.0,-999.0,90,-99.99,,,0.00,359,weatherlink.com 1.10,2013-02-09 13:43:00,
2013-02-09 08:58:00,71.6,68.0,30.12,NNW,332,2.0,-999.0,89,-99.99,,,0.00,394,weatherlink.com 1.10,2013-02-09 13:58:00,
2013-02-09 09:13:00,73.4,69.0,30.12,NNW,336,6.0,-999.0,87,-99.99,,,0.00,462,weatherlink.com 1.10,2013-02-09 14:13:00,
2013-02-09 09:28:00,75.2,70.0,30.12,NE,38,6.0,-999.0,84,-99.99,,,0.00,353,weatherlink.com 1.10,2013-02-09 14:28:00,
2013-02-09 09:43:00,74.3,68.0,30.13,NNE,29,1.0,-999.0,81,-99.99,,,0.00,47,weatherlink.com 1.10,2013-02-09 14:43:00,
2013-02-09 09:59:00,73.6,67.0,30.13,NNE,24,6.0,-999.0,81,-99.99,,,0.00,63,weatherlink.com 1.10,2013-02-09 14:59:00,
2013-02-09 10:13:00,74.9,68.0,30.14,NE,41,12.0,-999.0,79,-99.99,,,0.00,204,weatherlink.com 1.10,2013-02-09 15:13:00,
2013-02-09 10:28:00,77.1,69.0,30.14,NE,46,11.0,-999.0,76,-99.99,,,0.00,835,weatherlink.com 1.10,2013-02-09 15:28:00,
2013-02-09 10:44:00,76.6,68.0,30.15,NE,41,9.0,-999.0,75,-99.99,,,0.00,135,weatherlink.com 1.10,2013-02-09 15:44:00,
2013-02-09 10:59:00,75.0,67.0,30.14,NNE,22,14.0,-999.0,76,-99.99,,,0.00,246,weatherlink.com 1.10,2013-02-09 15:59:00,
2013-02-09 11:14:00,76.7,68.0,30.14,NE,42,15.0,-999.0,74,-99.99,,,0.00,754,weatherlink.com 1.10,2013-02-09 16:14:00,
2013-02-09 11:29:00,75.9,67.0,30.14,NNE,29,14.0,-999.0,74,-99.99,,,0.00,301,weatherlink.com 1.10,2013-02-09 16:29:00,
2013-02-09 11:44:00,77.8,69.0,30.14,NE,46,13.0,-999.0,74,-99.99,,,0.00,958,weatherlink.com 1.10,2013-02-09 16:44:00,
2013-02-09 11:59:00,77.3,68.0,30.14,NE,45,16.0,-999.0,73,-99.99,,,0.00,877,weatherlink.com 1.10,2013-02-09 16:59:00,
2013-02-09 12:14:00,77.8,68.0,30.13,NE,40,13.0,-999.0,71,-99.99,,,0.00,849,weatherlink.com 1.10,2013-02-09 17:14:00,
2013-02-09 12:29:00,78.0,67.0,30.13,NE,38,13.0,-999.0,70,-99.99,,,0.00,902,weatherlink.com 1.10,2013-02-09 17:29:00,
2013-02-09 12:44:00,77.5,67.0,30.13,NE,34,16.0,-999.0,70,-99.99,,,0.00,893,weatherlink.com 1.10,2013-02-09 17:44:00,
2013-02-09 12:59:00,78.9,68.0,30.13,NE,47,12.0,-999.0,69,-99.99,,,0.00,842,weatherlink.com 1.10,2013-02-09 17:59:00,
2013-02-09 13:14:00,78.7,67.0,30.12,NE,49,12.0,-999.0,67,-99.99,,,0.00,809,weatherlink.com 1.10,2013-02-09 18:14:00,
2013-02-09 13:29:00,79.3,67.0,30.12,NE,46,11.0,-999.0,67,-99.99,,,0.00,812,weatherlink.com 1.10,2013-02-09 18:29:00,
2013-02-09 13:44:00,79.3,66.0,30.12,NE,41,4.0,-999.0,64,-99.99,,,0.00,798,weatherlink.com 1.10,2013-02-09 18:44:00,
2013-02-09 13:59:00,78.9,67.0,30.12,NE,36,9.0,-999.0,66,-99.99,,,0.00,831,weatherlink.com 1.10,2013-02-09 18:59:00,
2013-02-09 14:14:00,78.3,67.0,30.11,NE,46,15.0,-999.0,69,-99.99,,,0.00,234,weatherlink.com 1.10,2013-02-09 19:14:00,
2013-02-09 14:29:00,75.3,66.0,30.11,NE,55,14.0,-999.0,73,-99.99,,,0.00,178,weatherlink.com 1.10,2013-02-09 19:29:00,
2013-02-09 14:44:00,74.8,66.0,30.11,NE,46,18.0,-999.0,75,-99.99,,,0.00,132,weatherlink.com 1.10,2013-02-09 19:44:00,
2013-02-09 14:59:00,75.0,67.0,30.11,ENE,70,19.0,-999.0,75,-99.99,,,0.00,229,weatherlink.com 1.10,2013-02-09 19:59:00,
2013-02-09 15:14:00,74.4,66.0,30.11,ENE,58,13.0,-999.0,76,-99.99,,,0.00,287,weatherlink.com 1.10,2013-02-09 20:14:00,
2013-02-09 15:29:00,75.1,66.0,30.11,NE,54,12.0,-999.0,74,-99.99,,,0.00,548,weatherlink.com 1.10,2013-02-09 20:29:00,
2013-02-09 15:44:00,74.2,66.0,30.11,NE,44,16.0,-999.0,75,-99.99,,,0.00,190,weatherlink.com 1.10,2013-02-09 20:44:00,
2013-02-09 15:59:00,74.5,66.0,30.11,NE,53,13.0,-999.0,74,-99.99,,,0.00,153,weatherlink.com 1.10,2013-02-09 20:59:00,
2013-02-09 16:14:00,74.0,66.0,30.12,ENE,57,14.0,-999.0,75,-99.99,,,0.00,148,weatherlink.com 1.10,2013-02-09 21:14:00,
2013-02-09 16:29:00,74.0,65.0,30.12,NE,52,16.0,-999.0,74,-99.99,,,0.00,341,weatherlink.com 1.10,2013-02-09 21:29:00,
2013-02-09 16:44:00,74.0,66.0,30.12,NE,46,15.0,-999.0,75,-99.99,,,0.00,90,weatherlink.com 1.10,2013-02-09 21:44:00,
2013-02-09 16:59:00,73.4,65.0,30.12,East,89,13.0,-999.0,76,-99.99,,,0.00,69,weatherlink.com 1.10,2013-02-09 21:59:00,
2013-02-09 17:14:00,73.2,66.0,30.12,ENE,67,13.0,-999.0,77,-99.99,,,0.00,47,weatherlink.com 1.10,2013-02-09 22:14:00,
2013-02-09 17:29:00,73.0,65.0,30.13,ENE,71,14.0,-999.0,77,-99.99,,,0.00,44,weatherlink.com 1.10,2013-02-09 22:29:00,
2013-02-09 17:44:00,72.8,66.0,30.13,ENE,72,15.0,-999.0,78,-99.99,,,0.00,19,weatherlink.com 1.10,2013-02-09 22:44:00,
2013-02-09 17:59:00,72.6,65.0,30.13,ENE,63,12.0,-999.0,78,-99.99,,,0.00,7,weatherlink.com 1.10,2013-02-09 22:59:00,
2013-02-09 18:14:00,72.3,65.0,30.14,ENE,61,15.0,-999.0,77,-99.99,,,0.00,0,weatherlink.com 1.10,2013-02-09 23:14:00,
2013-02-09 18:29:00,72.3,65.0,30.14,ENE,68,18.0,-999.0,77,-99.99,,,0.00,0,weatherlink.com 1.10,2013-02-09 23:29:00,
2013-02-09 18:44:00,72.4,65.0,30.14,East,83,16.0,-999.0,77,-99.99,,,0.00,0,weatherlink.com 1.10,2013-02-09 23:44:00,
2013-02-09 18:59:00,72.3,65.0,30.14,ENE,62,18.0,-999.0,77,-99.99,,,0.00,0,weatherlink.com 1.10,2013-02-09 23:59:00,
2013-02-09 19:14:00,72.3,65.0,30.14,ENE,66,21.0,-999.0,77,-99.99,,,0.00,0,weatherlink.com 1.10,2013-02-10 00:14:00,
2013-02-09 19:29:00,72.2,65.0,30.15,East,82,13.0,-999.0,77,-99.99,,,0.00,0,weatherlink.com 1.10,2013-02-10 00:29:00,
2013-02-09 19:44:00,72.0,64.0,30.15,East,101,15.0,-999.0,77,-99.99,,,0.00,0,weatherlink.com 1.10,2013-02-10 00:44:00,
2013-02-09 19:59:00,72.1,65.0,30.15,ENE,65,20.0,-999.0,78,-99.99,,,0.00,0,weatherlink.com 1.10,2013-02-10 00:59:00,
2013-02-09 20:14:00,71.8,64.0,30.16,ENE,61,14.0,-999.0,76,-99.99,,,0.00,0,weatherlink.com 1.10,2013-02-10 01:14:00,
2013-02-09 20:29:00,71.9,64.0,30.16,ESE,121,15.0,-999.0,76,-99.99,,,0.00,0,weatherlink.com 1.10,2013-02-10 01:29:00,
2013-02-09 20:44:00,71.9,64.0,30.16,ENE,73,22.0,-999.0,76,-99.99,,,0.00,0,weatherlink.com 1.10,2013-02-10 01:44:00,
2013-02-09 20:59:00,71.9,64.0,30.17,East,84,18.0,-999.0,77,-99.99,,,0.00,0,weatherlink.com 1.10,2013-02-10 01:59:00,
2013-02-09 21:14:00,72.0,64.0,30.17,ESE,105,18.0,-999.0,75,-99.99,,,0.00,0,weatherlink.com 1.10,2013-02-10 02:14:00,
2013-02-09 21:29:00,72.1,64.0,30.17,East,84,19.0,-999.0,76,-99.99,,,0.00,0,weatherlink.com 1.10,2013-02-10 02:29:00,
2013-02-09 21:44:00,71.9,64.0,30.17,ENE,76,19.0,-999.0,76,-99.99,,,0.00,0,weatherlink.com 1.10,2013-02-10 02:44:00,
2013-02-09 21:59:00,71.8,64.0,30.17,ENE,78,19.0,-999.0,76,-99.99,,,0.00,0,weatherlink.com 1.10,2013-02-10 02:59:00,
2013-02-09 22:14:00,71.7,63.0,30.17,ENE,67,18.0,-999.0,75,-99.99,,,0.00,0,weatherlink.com 1.10,2013-02-10 03:14:00,
2013-02-09 22:29:00,71.7,63.0,30.17,ENE,72,19.0,-999.0,75,-99.99,,,0.00,0,weatherlink.com 1.10,2013-02-10 03:29:00,
2013-02-09 22:44:00,71.7,64.0,30.17,East,94,20.0,-999.0,76,-99.99,,,0.00,0,weatherlink.com 1.10,2013-02-10 03:44:00,
2013-02-09 22:59:00,71.5,63.0,30.18,East,97,13.0,-999.0,75,-99.99,,,0.00,0,weatherlink.com 1.10,2013-02-10 03:59:00,
2013-02-09 23:14:00,71.5,63.0,30.18,NE,54,20.0,-999.0,74,-99.99,,,0.00,0,weatherlink.com 1.10,2013-02-10 04:14:00,
2013-02-09 23:29:00,71.5,63.0,30.18,ENE,74,15.0,-999.0,74,-99.99,,,0.00,0,weatherlink.com 1.10,2013-02-10 04:29:00,
2013-02-09 23:44:00,71.5,63.0,30.18,ENE,74,16.0,-999.0,75,-99.99,,,0.00,0,weatherlink.com 1.10,2013-02-10 04:44:00,
2013-02-09 23:59:00,71.4,63.0,30.18,ESE,110,14.0,-999.0,74,-99.99,,,0.00,0,weatherlink.com 1.10,2013-02-10 04:59:00,